createdAt,value
2022-08-30T00:01:06.251Z,102585.31
2022-08-30T00:03:47.195Z,102585.16
2022-08-30T00:06:19.855Z,102589.78
2022-08-30T00:08:51.326Z,102601.41
2022-08-30T00:11:27.407Z,102595.38
2022-08-30T00:13:59.353Z,102602.25
2022-08-30T00:16:29.483Z,102600.69
2022-08-30T00:18:59.919Z,102605.41
2022-08-30T00:21:30.474Z,102613.91
2022-08-30T00:24:00.264Z,102606.91
2022-08-30T00:26:30.735Z,102610.06
2022-08-30T00:29:00.720Z,102610.00
2022-08-30T00:31:31.546Z,102598.88
2022-08-30T00:34:01.562Z,102600.41
2022-08-30T00:36:31.392Z,102607.34
2022-08-30T00:39:01.837Z,102608.50
2022-08-30T00:41:31.948Z,102612.69
2022-08-30T00:44:02.458Z,102621.66
2022-08-30T00:46:33.568Z,102614.72
2022-08-30T00:49:08.121Z,102612.69
2022-08-30T00:51:38.780Z,102616.75
2022-08-30T00:54:09.779Z,102616.34
2022-08-30T00:56:40.030Z,102617.97
2022-08-30T00:59:11.497Z,102610.25
2022-08-30T01:01:41.891Z,102610.50
2022-08-30T01:04:14.767Z,102611.25
2022-08-30T01:06:45.006Z,102605.19
2022-08-30T01:09:15.334Z,102611.47
2022-08-30T01:11:47.893Z,102610.25
2022-08-30T01:14:18.981Z,102600.38
2022-08-30T01:16:49.259Z,102605.34
2022-08-30T01:19:54.930Z,102601.84
2022-08-30T01:22:52.603Z,102605.66
2022-08-30T01:25:29.037Z,102609.41
2022-08-30T01:28:02.815Z,102600.69
2022-08-30T01:30:34.303Z,102601.94
2022-08-30T01:33:05.960Z,102604.97
2022-08-30T01:35:48.024Z,102603.47
2022-08-30T01:38:19.946Z,102597.28
2022-08-30T01:40:51.518Z,102592.75
2022-08-30T01:43:21.591Z,102599.34
2022-08-30T01:45:52.054Z,102592.38
2022-08-30T01:48:30.899Z,102604.50
2022-08-30T01:51:01.470Z,102604.31
2022-08-30T01:53:31.982Z,102601.63
2022-08-30T01:56:01.987Z,102600.53
2022-08-30T01:58:32.534Z,102592.03
2022-08-30T02:01:02.724Z,102599.41
2022-08-30T02:03:36.342Z,102596.69
2022-08-30T02:06:08.434Z,102599.38
2022-08-30T02:08:44.420Z,102587.53
2022-08-30T02:11:15.329Z,102592.75
2022-08-30T02:13:47.483Z,102595.84
2022-08-30T02:16:23.874Z,102577.53
2022-08-30T02:18:55.547Z,102595.03
2022-08-30T02:21:26.731Z,102593.56
2022-08-30T02:23:59.141Z,102588.97
2022-08-30T02:26:29.237Z,102587.47
2022-08-30T02:29:01.565Z,102581.50
2022-08-30T02:31:31.727Z,102572.53
2022-08-30T02:34:05.303Z,102574.41
2022-08-30T02:36:35.670Z,102568.66
2022-08-30T02:39:05.610Z,102578.72
2022-08-30T02:41:35.559Z,102577.16
2022-08-30T02:44:06.362Z,102577.88
2022-08-30T02:46:37.339Z,102573.69
2022-08-30T02:49:30.288Z,102574.31
2022-08-30T02:52:01.110Z,102565.75
2022-08-30T02:54:33.561Z,102577.94
2022-08-30T02:57:07.830Z,102578.97
2022-08-30T02:59:50.886Z,102568.63
2022-08-30T03:02:24.274Z,102560.28
2022-08-30T03:04:58.839Z,102572.44
2022-08-30T03:07:32.649Z,102563.41
2022-08-30T03:10:05.936Z,102561.84
2022-08-30T03:12:36.517Z,102561.66
2022-08-30T03:15:12.070Z,102535.06
2022-08-30T03:17:43.302Z,102557.63
2022-08-30T03:20:13.691Z,102557.28
2022-08-30T03:22:44.176Z,102556.50
2022-08-30T03:25:14.401Z,102552.06
2022-08-30T03:27:45.199Z,102546.00
2022-08-30T03:30:16.601Z,102539.13
2022-08-30T03:32:47.387Z,102544.47
2022-08-30T03:35:19.251Z,102533.75
2022-08-30T03:37:50.327Z,102530.19
2022-08-30T03:40:26.962Z,102532.91
2022-08-30T03:42:57.373Z,102527.47
2022-08-30T03:45:28.015Z,102530.19
2022-08-30T03:48:00.127Z,102530.19
2022-08-30T03:50:31.622Z,102519.38
2022-08-30T03:53:03.018Z,102513.09
2022-08-30T03:55:33.394Z,102522.09
2022-08-30T03:58:05.879Z,102518.47
2022-08-30T04:00:35.855Z,102520.03
2022-08-30T04:03:06.538Z,102522.38
2022-08-30T04:05:36.627Z,102520.66
2022-08-30T04:08:12.070Z,102512.38
2022-08-30T04:10:43.003Z,102515.50
2022-08-30T04:13:13.428Z,102511.63
2022-08-30T04:15:47.650Z,102503.66
2022-08-30T04:18:18.795Z,102510.59
2022-08-30T04:20:48.840Z,102506.69
2022-08-30T04:23:19.363Z,102495.34
2022-08-30T04:25:49.501Z,102506.44
2022-08-30T04:28:19.877Z,102496.19
2022-08-30T04:30:50.009Z,102488.16
2022-08-30T04:33:21.055Z,102489.28
2022-08-30T04:35:51.558Z,102487.38
2022-08-30T04:38:23.444Z,102480.00
2022-08-30T04:40:55.620Z,102479.69
2022-08-30T04:43:27.900Z,102480.38
2022-08-30T04:45:58.792Z,102467.78
2022-08-30T04:48:29.260Z,102463.44
2022-08-30T04:50:59.243Z,102470.06
2022-08-30T04:53:29.703Z,102458.50
2022-08-30T04:55:59.802Z,102461.50
2022-08-30T04:58:30.287Z,102459.56
2022-08-30T05:01:00.472Z,102454.97
2022-08-30T05:03:31.246Z,102448.81
2022-08-30T05:06:01.312Z,102429.03
2022-08-30T05:08:31.854Z,102444.03
2022-08-30T05:11:05.394Z,102436.25
2022-08-30T05:13:36.956Z,102431.66
2022-08-30T05:16:09.447Z,102431.47
2022-08-30T05:18:39.928Z,102426.91
2022-08-30T05:21:14.665Z,102421.56
2022-08-30T05:23:46.403Z,102414.25
2022-08-30T05:26:22.626Z,102412.31
2022-08-30T05:28:55.721Z,102408.84
2022-08-30T05:31:31.621Z,102412.09
2022-08-30T05:34:02.476Z,102402.63
2022-08-30T05:36:36.278Z,102412.53
2022-08-30T05:39:09.148Z,102404.91
2022-08-30T05:41:40.134Z,102405.97
2022-08-30T05:44:12.154Z,102398.50
2022-08-30T05:46:46.814Z,102394.09
2022-08-30T05:49:17.636Z,102397.16
2022-08-30T05:51:47.657Z,102391.81
2022-08-30T05:54:19.151Z,102391.91
2022-08-30T05:56:49.235Z,102377.16
2022-08-30T05:59:19.739Z,102375.31
2022-08-30T06:01:49.880Z,102372.59
2022-08-30T06:04:20.279Z,102363.06
2022-08-30T06:06:50.351Z,102361.53
2022-08-30T06:09:23.961Z,102357.38
2022-08-30T06:11:55.107Z,102362.28
2022-08-30T06:14:26.360Z,102355.88
2022-08-30T06:16:55.899Z,102355.09
2022-08-30T06:19:25.699Z,102327.00
2022-08-30T06:21:56.112Z,102341.47
2022-08-30T06:24:41.162Z,102349.25
2022-08-30T06:27:17.614Z,102340.47
2022-08-30T06:29:48.801Z,102341.63
2022-08-30T06:32:19.289Z,102331.75
2022-08-30T06:34:49.494Z,102332.47
2022-08-30T06:37:29.239Z,102329.81
2022-08-30T06:40:01.866Z,102327.50
2022-08-30T06:42:34.564Z,102327.16
2022-08-30T06:45:10.719Z,102322.50
2022-08-30T06:47:41.930Z,102321.78
2022-08-30T06:50:17.125Z,102314.94
2022-08-30T06:52:48.159Z,102313.00
2022-08-30T06:55:19.494Z,102312.88
2022-08-30T06:57:51.884Z,102308.88
2022-08-30T07:00:22.019Z,102303.63
2022-08-30T07:02:52.565Z,102303.44
2022-08-30T07:05:26.130Z,102307.44
2022-08-30T07:07:56.509Z,102296.13
2022-08-30T07:10:26.286Z,102292.38
2022-08-30T07:12:56.931Z,102304.00
2022-08-30T07:15:27.077Z,102312.50
2022-08-30T07:18:16.629Z,102302.66
2022-08-30T07:20:47.583Z,102309.44
2022-08-30T07:23:18.346Z,102295.94
2022-08-30T07:25:48.539Z,102294.13
2022-08-30T07:28:19.234Z,102291.31
2022-08-30T07:30:49.663Z,102295.78
2022-08-30T07:33:20.098Z,102292.53
2022-08-30T07:35:49.982Z,102300.66
2022-08-30T07:38:19.934Z,102298.53
2022-08-30T07:40:50.094Z,102290.19
2022-08-30T07:43:20.726Z,102299.00
2022-08-30T07:45:50.775Z,102302.66
2022-08-30T07:48:21.235Z,102308.94
2022-08-30T07:50:54.890Z,102305.06
2022-08-30T07:53:28.802Z,102307.78
2022-08-30T07:55:58.279Z,102300.19
2022-08-30T07:58:28.019Z,102306.44
2022-08-30T08:01:00.615Z,102315.19
2022-08-30T08:03:31.256Z,102303.88
2022-08-30T08:06:05.282Z,102309.63
2022-08-30T08:08:35.794Z,102300.16
2022-08-30T08:11:21.257Z,102300.25
2022-08-30T08:13:54.243Z,102307.31
2022-08-30T08:16:27.202Z,102300.00
2022-08-30T08:18:57.710Z,102310.63
2022-08-30T08:21:28.277Z,102301.94
2022-08-30T08:23:58.167Z,102305.44
2022-08-30T08:26:28.671Z,102307.81
2022-08-30T08:28:58.757Z,102303.56
2022-08-30T08:31:33.296Z,102313.06
2022-08-30T08:34:07.029Z,102310.63
2022-08-30T08:36:37.818Z,102293.19
2022-08-30T08:39:09.610Z,102310.41
2022-08-30T08:41:43.150Z,102304.81
2022-08-30T08:44:34.998Z,102304.56
2022-08-30T08:47:15.376Z,102312.09
2022-08-30T08:49:48.860Z,102309.50
2022-08-30T08:52:48.781Z,102311.63
2022-08-30T08:55:22.439Z,102306.38
2022-08-30T08:57:53.648Z,102306.66
2022-08-30T09:00:23.214Z,102305.81
2022-08-30T09:03:02.064Z,102302.75
2022-08-30T09:05:40.886Z,102304.91
2022-08-30T09:08:19.814Z,102313.25
2022-08-30T09:11:03.324Z,102305.38
2022-08-30T09:13:33.823Z,102302.53
2022-08-30T09:16:06.557Z,102312.00
2022-08-30T09:18:51.375Z,102317.44
2022-08-30T09:21:29.095Z,102318.78
2022-08-30T09:24:05.933Z,102322.22
2022-08-30T09:26:39.454Z,102319.66
2022-08-30T09:29:19.153Z,102322.25
2022-08-30T09:32:22.420Z,102315.66
2022-08-30T09:34:45.842Z,102318.69
2022-08-30T09:37:36.971Z,102333.66
2022-08-30T09:40:18.370Z,102323.56
2022-08-30T09:43:12.023Z,102320.69
2022-08-30T09:45:45.220Z,102331.06
2022-08-30T09:48:45.991Z,102323.78
2022-08-30T09:52:08.055Z,102325.63
2022-08-30T09:55:04.606Z,102319.41
2022-08-30T09:57:53.705Z,102329.31
2022-08-30T10:00:30.360Z,102328.59
2022-08-30T10:03:06.121Z,102332.38
2022-08-30T10:05:59.334Z,102335.09
2022-08-30T10:08:48.944Z,102341.03
2022-08-30T10:11:34.572Z,102337.88
2022-08-30T10:14:21.958Z,102335.59
2022-08-30T10:17:07.568Z,102340.97
2022-08-30T10:19:56.871Z,102347.03
2022-08-30T10:22:52.649Z,102348.72
2022-08-30T10:25:28.002Z,102349.25
2022-08-30T10:28:21.269Z,102352.44
2022-08-30T10:31:00.355Z,102350.03
2022-08-30T10:33:43.535Z,102351.97
2022-08-30T10:36:16.290Z,102348.06
2022-08-30T10:38:51.495Z,102350.16
2022-08-30T10:41:33.348Z,102343.19
2022-08-30T10:44:17.703Z,102351.09
2022-08-30T10:47:12.018Z,102350.72
2022-08-30T10:49:52.116Z,102348.72
2022-08-30T10:52:35.371Z,102349.00
2022-08-30T10:55:12.674Z,102339.88
2022-08-30T10:57:43.672Z,102332.66
2022-08-30T11:00:28.518Z,102339.81
2022-08-30T11:03:20.891Z,102343.00
2022-08-30T11:06:15.890Z,102348.88
2022-08-30T11:09:05.963Z,102336.19
2022-08-30T11:11:54.412Z,102342.38
2022-08-30T11:14:25.867Z,102334.28
2022-08-30T11:17:00.746Z,102329.31
2022-08-30T11:19:42.246Z,102344.25
2022-08-30T11:22:17.838Z,102335.63
2022-08-30T11:25:02.644Z,102343.06
2022-08-30T11:27:57.870Z,102341.69
2022-08-30T11:30:27.887Z,102352.13
2022-08-30T11:33:12.506Z,102341.94
2022-08-30T11:35:53.779Z,102346.56
2022-08-30T11:38:27.232Z,102342.56
2022-08-30T11:40:57.380Z,102347.78
2022-08-30T11:43:41.398Z,102347.91
2022-08-30T11:46:30.505Z,102347.78
2022-08-30T11:49:17.055Z,102328.03
2022-08-30T11:55:14.402Z,102344.75
2022-08-30T11:58:18.470Z,102348.78
2022-08-30T12:00:52.883Z,102345.31
2022-08-30T12:03:35.056Z,102353.16
2022-08-30T12:06:09.502Z,102345.97
2022-08-30T12:08:47.644Z,102351.94
2022-08-30T12:11:20.891Z,102355.50
2022-08-30T12:13:55.452Z,102347.63
2022-08-30T12:17:03.094Z,102352.88
2022-08-30T12:19:35.728Z,102358.06
2022-08-30T12:22:19.859Z,102350.56
2022-08-30T12:24:54.921Z,102357.66
2022-08-30T12:27:26.166Z,102355.50
2022-08-30T12:30:02.985Z,102344.66
2022-08-30T12:32:36.800Z,102346.13
2022-08-30T12:35:09.454Z,102336.09
2022-08-30T12:37:42.712Z,102338.31
2022-08-30T12:40:20.972Z,102347.72
2022-08-30T12:42:59.570Z,102339.41
2022-08-30T12:45:44.138Z,102339.72
2022-08-30T12:48:20.565Z,102343.06
2022-08-30T12:50:56.481Z,102339.81
2022-08-30T12:53:39.903Z,102336.41
2022-08-30T12:56:30.442Z,102329.03
2022-08-30T12:59:10.184Z,102332.06
2022-08-30T13:01:41.034Z,102331.75
2022-08-30T13:04:25.559Z,102326.34
2022-08-30T13:06:59.560Z,102329.94
2022-08-30T13:09:43.592Z,102327.25
2022-08-30T13:12:27.030Z,102326.66
2022-08-30T13:15:20.154Z,102324.81
2022-08-30T13:17:50.791Z,102312.38
2022-08-30T13:20:25.610Z,102316.06
2022-08-30T13:23:25.598Z,102307.09
2022-08-30T13:25:57.835Z,102311.31
2022-08-30T13:28:31.802Z,102302.88
2022-08-30T13:31:04.455Z,102300.34
2022-08-30T13:33:35.339Z,102286.22
2022-08-30T13:36:06.735Z,102301.84
2022-08-30T13:38:37.536Z,102293.16
2022-08-30T13:41:09.161Z,102294.09
2022-08-30T13:46:33.578Z,102300.34
2022-08-30T13:52:23.938Z,102285.38
2022-08-30T13:55:00.193Z,102287.03
2022-08-30T14:00:23.691Z,102276.06
2022-08-30T14:02:59.945Z,102263.56
2022-08-30T14:06:05.318Z,102259.66
2022-08-30T14:08:48.064Z,102249.75
2022-08-30T14:11:22.674Z,102238.06
2022-08-30T14:16:47.762Z,102231.75
2022-08-30T14:19:22.206Z,102230.44
2022-08-30T14:21:52.890Z,102231.38
2022-08-30T14:24:24.021Z,102229.16
2022-08-30T14:26:55.940Z,102218.69
2022-08-30T14:29:31.172Z,102201.69
2022-08-30T14:32:01.964Z,102213.34
2022-08-30T14:34:33.131Z,102204.28
2022-08-30T14:37:04.139Z,102201.78
2022-08-30T14:39:35.867Z,102193.91
2022-08-30T14:42:09.488Z,102183.31
2022-08-30T14:44:55.336Z,102186.06
2022-08-30T14:47:29.772Z,102181.38
2022-08-30T14:50:03.093Z,102171.75
2022-08-30T14:52:37.019Z,102168.00
2022-08-30T14:55:11.091Z,102152.09
2022-08-30T14:57:42.092Z,102156.47
2022-08-30T15:00:14.862Z,102144.78
2022-08-30T15:02:46.655Z,102146.34
2022-08-30T15:05:18.307Z,102136.53
2022-08-30T15:07:54.378Z,102133.81
2022-08-30T15:10:25.675Z,102123.63
2022-08-30T15:12:56.340Z,102114.28
2022-08-30T15:15:27.551Z,102103.06
2022-08-30T15:17:58.210Z,102108.50
2022-08-30T15:20:29.471Z,102107.28
2022-08-30T15:23:00.179Z,102097.34
2022-08-30T15:25:32.042Z,102098.56
2022-08-30T15:28:03.290Z,102089.72
2022-08-30T15:30:34.383Z,102090.75
2022-08-30T15:33:05.526Z,102088.94
2022-08-30T15:35:36.265Z,102081.59
2022-08-30T15:38:07.439Z,102067.34
2022-08-30T15:40:38.667Z,102064.88
2022-08-30T15:43:09.843Z,102044.03
2022-08-30T15:45:40.494Z,102047.69
2022-08-30T15:48:11.630Z,102033.16
2022-08-30T15:50:42.431Z,102030.75
2022-08-30T15:53:13.517Z,102033.38
2022-08-30T15:55:44.160Z,102033.50
2022-08-30T15:58:15.171Z,102014.91
2022-08-30T16:00:47.146Z,102009.94
2022-08-30T16:03:18.278Z,102012.97
2022-08-30T16:05:50.668Z,101998.78
2022-08-30T16:08:26.622Z,102005.09
2022-08-30T16:10:57.404Z,101985.19
2022-08-30T16:13:28.852Z,101983.38
2022-08-30T16:16:03.836Z,101987.97
2022-08-30T16:18:36.199Z,101974.13
2022-08-30T16:21:13.890Z,101959.09
2022-08-30T16:23:46.599Z,101964.25
2022-08-30T16:26:20.234Z,101950.97
2022-08-30T16:28:52.916Z,101958.22
2022-08-30T16:31:24.957Z,101951.78
2022-08-30T16:34:02.465Z,101948.19
2022-08-30T16:36:39.285Z,101930.59
2022-08-30T16:39:11.140Z,101930.56
2022-08-30T16:41:44.938Z,101917.97
2022-08-30T16:44:17.940Z,101913.97
2022-08-30T16:46:53.232Z,101912.09
2022-08-30T16:49:26.014Z,101911.63
2022-08-30T16:51:56.838Z,101894.88
2022-08-30T16:54:28.020Z,101895.81
2022-08-30T16:56:59.018Z,101888.38
2022-08-30T16:59:30.039Z,101887.75
2022-08-30T17:02:02.275Z,101887.34
2022-08-30T17:04:34.537Z,101882.88
2022-08-30T17:07:05.923Z,101883.59
2022-08-30T17:09:37.027Z,101873.72
2022-08-30T17:12:10.462Z,101863.56
2022-08-30T17:14:41.486Z,101871.38
2022-08-30T17:17:14.647Z,101859.63
2022-08-30T17:19:47.236Z,101859.19
2022-08-30T17:22:18.006Z,101853.59
2022-08-30T17:24:53.438Z,101854.88
2022-08-30T17:27:24.096Z,101860.22
2022-08-30T17:29:55.130Z,101847.31
2022-08-30T17:32:27.103Z,101845.72
2022-08-30T17:34:58.237Z,101840.91
2022-08-30T17:37:29.097Z,101844.13
2022-08-30T17:40:02.225Z,101842.25
2022-08-30T17:42:35.752Z,101841.41
2022-08-30T17:45:09.667Z,101837.31
2022-08-30T17:47:40.405Z,101830.03
2022-08-30T17:50:12.217Z,101822.00
2022-08-30T17:52:44.433Z,101816.75
2022-08-30T17:55:15.601Z,101820.72
2022-08-30T17:57:46.895Z,101818.72
2022-08-30T18:00:22.329Z,101815.88
2022-08-30T18:02:53.058Z,101807.00
2022-08-30T18:05:25.218Z,101805.59
2022-08-30T18:07:56.549Z,101804.50
2022-08-30T18:10:32.978Z,101795.28
2022-08-30T18:13:05.548Z,101798.34
2022-08-30T18:15:36.673Z,101803.16
2022-08-30T18:18:12.828Z,101801.50
2022-08-30T18:20:44.455Z,101796.34
2022-08-30T18:23:15.281Z,101792.13
2022-08-30T18:26:02.311Z,101777.47
2022-08-30T18:28:36.682Z,101780.41
2022-08-30T18:31:07.570Z,101782.97
2022-08-30T18:33:40.828Z,101771.47
2022-08-30T18:36:14.305Z,101765.72
2022-08-30T18:38:45.511Z,101764.84
2022-08-30T18:41:16.463Z,101762.00
2022-08-30T18:44:10.865Z,101753.59
2022-08-30T18:46:45.317Z,101750.41
2022-08-30T18:49:28.074Z,101753.53
2022-08-30T18:51:59.009Z,101754.13
2022-08-30T18:54:31.004Z,101742.88
2022-08-30T18:57:01.824Z,101725.72
2022-08-30T18:59:36.613Z,101734.19
2022-08-30T19:02:16.755Z,101737.44
2022-08-30T19:04:50.294Z,101727.31
2022-08-30T19:07:30.895Z,101724.03
2022-08-30T19:10:12.410Z,101731.91
2022-08-30T19:12:43.530Z,101729.56
2022-08-30T19:15:14.915Z,101727.00
2022-08-30T19:17:48.126Z,101728.38
2022-08-30T19:20:22.604Z,101725.69
2022-08-30T19:23:09.791Z,101715.44
2022-08-30T19:25:43.599Z,101718.75
2022-08-30T19:28:14.706Z,101719.59
2022-08-30T19:30:46.110Z,101721.84
2022-08-30T19:33:18.428Z,101707.56
2022-08-30T19:35:51.309Z,101710.25
2022-08-30T19:38:22.726Z,101691.88
2022-08-30T19:40:58.125Z,101709.22
2022-08-30T19:43:30.711Z,101702.81
2022-08-30T19:46:02.440Z,101703.28
2022-08-30T19:48:34.296Z,101709.97
2022-08-30T19:51:16.476Z,101709.47
2022-08-30T19:53:47.638Z,101698.25
2022-08-30T19:56:18.780Z,101699.66
2022-08-30T19:58:49.505Z,101698.38
2022-08-30T20:01:33.297Z,101699.31
2022-08-30T20:04:07.404Z,101700.94
2022-08-30T20:06:38.741Z,101705.28
2022-08-30T20:09:10.547Z,101692.75
2022-08-30T20:11:46.391Z,101702.41
2022-08-30T20:14:23.262Z,101710.34
2022-08-30T20:16:54.615Z,101705.66
2022-08-30T20:19:29.437Z,101703.13
2022-08-30T20:22:05.586Z,101703.16
2022-08-30T20:24:39.415Z,101702.81
2022-08-30T20:27:15.198Z,101706.59
2022-08-30T20:29:46.347Z,101701.59
2022-08-30T20:32:18.619Z,101698.72
2022-08-30T20:34:49.763Z,101684.44
2022-08-30T20:37:24.191Z,101704.72
2022-08-30T20:39:59.154Z,101700.97
2022-08-30T20:42:30.802Z,101698.44
2022-08-30T20:45:01.727Z,101699.34
2022-08-30T20:47:34.236Z,101691.78
2022-08-30T20:50:13.575Z,101687.97
2022-08-30T20:52:45.390Z,101695.88
2022-08-30T20:55:16.527Z,101695.38
2022-08-30T20:57:47.201Z,101698.16
2022-08-30T21:00:17.571Z,101701.31
2022-08-30T21:02:48.587Z,101698.47
2022-08-30T21:05:20.019Z,101707.16
2022-08-30T21:07:50.543Z,101700.81
2022-08-30T21:10:23.664Z,101699.38
2022-08-30T21:12:54.005Z,101701.75
2022-08-30T21:15:37.262Z,101703.50
2022-08-30T21:18:08.135Z,101712.84
2022-08-30T21:20:38.602Z,101710.75
2022-08-30T21:23:08.802Z,101712.41
2022-08-30T21:25:43.167Z,101710.09
2022-08-30T21:28:13.347Z,101709.41
2022-08-30T21:30:43.961Z,101703.19
2022-08-30T21:33:14.049Z,101723.78
2022-08-30T21:36:04.496Z,101721.78
2022-08-30T21:38:34.509Z,101723.16
2022-08-30T21:41:04.649Z,101733.19
2022-08-30T21:43:34.600Z,101722.09
2022-08-30T21:46:08.284Z,101720.66
2022-08-30T21:48:39.032Z,101729.00
2022-08-30T21:51:11.551Z,101717.94
2022-08-30T21:53:42.303Z,101720.69
2022-08-30T21:56:21.894Z,101728.16
2022-08-30T21:58:52.379Z,101732.06
2022-08-30T22:01:26.360Z,101732.66
2022-08-30T22:03:59.097Z,101737.19
2022-08-30T22:06:32.034Z,101738.66
2022-08-30T22:09:03.777Z,101733.44
2022-08-30T22:11:36.127Z,101745.25
2022-08-30T22:14:07.890Z,101746.16
2022-08-30T22:16:42.640Z,101754.81
2022-08-30T22:19:12.911Z,101767.53
2022-08-30T22:21:44.071Z,101763.50
2022-08-30T22:24:14.259Z,101759.00
2022-08-30T22:26:46.041Z,101771.88
2022-08-30T22:29:16.351Z,101761.41
2022-08-30T22:31:47.666Z,101768.91
2022-08-30T22:34:18.931Z,101774.25
2022-08-30T22:36:49.349Z,101779.03
2022-08-30T22:39:19.374Z,101785.16
2022-08-30T22:41:49.803Z,101778.28
2022-08-30T22:44:20.069Z,101792.19
2022-08-30T22:46:50.497Z,101784.84
2022-08-30T22:49:20.434Z,101794.84
2022-08-30T22:51:50.792Z,101795.41
2022-08-30T22:54:23.022Z,101803.25
2022-08-30T22:56:53.919Z,101807.19
2022-08-30T22:59:24.513Z,101794.59
2022-08-30T23:02:03.035Z,101811.88
2022-08-30T23:04:33.752Z,101805.84
2022-08-30T23:07:04.198Z,101813.47
2022-08-30T23:09:34.530Z,101818.94
2022-08-30T23:12:07.342Z,101815.34
2022-08-30T23:14:37.397Z,101822.13
2022-08-30T23:17:07.182Z,101826.31
2022-08-30T23:19:37.578Z,101819.38
2022-08-30T23:22:07.583Z,101802.59
2022-08-30T23:24:56.147Z,101839.28
2022-08-30T23:27:46.494Z,101842.63
2022-08-30T23:30:35.187Z,101835.19
2022-08-30T23:33:23.289Z,101830.81
2022-08-30T23:36:12.366Z,101845.63
2022-08-30T23:39:00.523Z,101843.91
2022-08-30T23:41:49.377Z,101846.72
2022-08-30T23:44:37.579Z,101846.59
2022-08-30T23:47:26.925Z,101848.66
2022-08-30T23:50:18.428Z,101848.44
2022-08-30T23:53:07.025Z,101852.63
2022-08-30T23:55:58.883Z,101849.28
2022-08-30T23:58:47.616Z,101849.66
